sensor_id;sensor_type;location;lat;lon;timestamp;P1;durP1;ratioP1;P2;durP2;ratioP2
40588;SDS011;26297;49.450;6.640;2022-09-20T04:04:13;2.05;;;1.17;;
40588;SDS011;26297;49.450;6.640;2022-09-20T04:07:27;1.35;;;1.25;;
40588;SDS011;26297;49.450;6.640;2022-09-20T04:11:02;1.30;;;1.20;;
40588;SDS011;26297;49.450;6.640;2022-09-20T04:21:15;1.75;;;1.05;;
40588;SDS011;26297;49.450;6.640;2022-09-20T04:24:37;1.25;;;1.13;;
40588;SDS011;26297;49.450;6.640;2022-09-20T04:27:59;3.58;;;1.58;;
40588;SDS011;26297;49.450;6.640;2022-09-20T04:31:42;2.78;;;1.10;;
40588;SDS011;26297;49.450;6.640;2022-09-20T04:34:52;2.58;;;1.20;;
40588;SDS011;26297;49.450;6.640;2022-09-20T04:38:23;1.30;;;1.20;;
40588;SDS011;26297;49.450;6.640;2022-09-20T04:41:32;1.25;;;1.15;;
40588;SDS011;26297;49.450;6.640;2022-09-20T04:59:05;1.45;;;1.35;;
40588;SDS011;26297;49.450;6.640;2022-09-20T05:09:35;1.85;;;1.10;;
40588;SDS011;26297;49.450;6.640;2022-09-20T05:23:47;1.30;;;1.20;;
40588;SDS011;26297;49.450;6.640;2022-09-20T05:30:15;1.20;;;1.10;;
40588;SDS011;26297;49.450;6.640;2022-09-20T05:43:35;1.80;;;1.20;;
40588;SDS011;26297;49.450;6.640;2022-09-20T05:50:22;1.20;;;1.10;;
40588;SDS011;26297;49.450;6.640;2022-09-20T06:00:23;2.80;;;1.45;;
40588;SDS011;26297;49.450;6.640;2022-09-20T06:03:44;1.40;;;1.30;;
40588;SDS011;26297;49.450;6.640;2022-09-20T06:07:02;2.78;;;1.13;;
40588;SDS011;26297;49.450;6.640;2022-09-20T06:10:38;1.17;;;1.05;;
40588;SDS011;26297;49.450;6.640;2022-09-20T06:17:29;2.40;;;1.30;;
40588;SDS011;26297;49.450;6.640;2022-09-20T06:24:24;1.55;;;1.45;;
40588;SDS011;26297;49.450;6.640;2022-09-20T06:27:40;4.63;;;3.00;;
40588;SDS011;26297;49.450;6.640;2022-09-20T06:30:57;1.85;;;1.67;;
40588;SDS011;26297;49.450;6.640;2022-09-20T06:34:04;2.25;;;1.70;;
40588;SDS011;26297;49.450;6.640;2022-09-20T06:40:54;1.45;;;1.35;;
40588;SDS011;26297;49.450;6.640;2022-09-20T06:44:16;3.65;;;1.33;;
40588;SDS011;26297;49.450;6.640;2022-09-20T06:47:19;4.20;;;1.75;;
40588;SDS011;26297;49.450;6.640;2022-09-20T06:50:24;1.92;;;1.50;;
40588;SDS011;26297;49.450;6.640;2022-09-20T06:53:29;2.78;;;1.48;;
40588;SDS011;26297;49.450;6.640;2022-09-20T06:56:34;1.80;;;1.60;;
40588;SDS011;26297;49.450;6.640;2022-09-20T06:59:38;1.60;;;1.50;;
40588;SDS011;26297;49.450;6.640;2022-09-20T07:02:41;1.48;;;1.27;;
40588;SDS011;26297;49.450;6.640;2022-09-20T07:05:45;2.58;;;1.45;;
40588;SDS011;26297;49.450;6.640;2022-09-20T07:08:48;1.48;;;1.38;;
40588;SDS011;26297;49.450;6.640;2022-09-20T07:11:51;2.58;;;1.45;;
40588;SDS011;26297;49.450;6.640;2022-09-20T07:14:55;2.17;;;1.40;;
40588;SDS011;26297;49.450;6.640;2022-09-20T07:17:58;1.90;;;1.50;;
40588;SDS011;26297;49.450;6.640;2022-09-20T07:21:02;1.40;;;1.30;;
40588;SDS011;26297;49.450;6.640;2022-09-20T07:24:06;3.58;;;1.73;;
40588;SDS011;26297;49.450;6.640;2022-09-20T07:27:09;1.85;;;1.60;;
40588;SDS011;26297;49.450;6.640;2022-09-20T07:30:13;3.67;;;1.73;;
40588;SDS011;26297;49.450;6.640;2022-09-20T07:33:16;3.40;;;1.30;;
40588;SDS011;26297;49.450;6.640;2022-09-20T07:36:20;1.88;;;1.15;;
40588;SDS011;26297;49.450;6.640;2022-09-20T07:39:24;4.20;;;1.45;;
40588;SDS011;26297;49.450;6.640;2022-09-20T07:42:28;2.22;;;1.83;;
40588;SDS011;26297;49.450;6.640;2022-09-20T07:45:32;2.17;;;1.23;;
40588;SDS011;26297;49.450;6.640;2022-09-20T07:48:36;2.95;;;1.73;;
40588;SDS011;26297;49.450;6.640;2022-09-20T07:51:39;2.65;;;1.48;;
40588;SDS011;26297;49.450;6.640;2022-09-20T07:54:43;2.50;;;1.40;;
40588;SDS011;26297;49.450;6.640;2022-09-20T07:57:47;2.63;;;1.23;;
40588;SDS011;26297;49.450;6.640;2022-09-20T08:00:51;1.33;;;1.08;;
40588;SDS011;26297;49.450;6.640;2022-09-20T08:03:56;3.33;;;1.30;;
40588;SDS011;26297;49.450;6.640;2022-09-20T08:06:59;1.55;;;1.45;;
40588;SDS011;26297;49.450;6.640;2022-09-20T08:10:03;1.38;;;1.25;;
40588;SDS011;26297;49.450;6.640;2022-09-20T08:13:07;3.67;;;1.73;;
40588;SDS011;26297;49.450;6.640;2022-09-20T08:16:11;4.43;;;1.65;;
40588;SDS011;26297;49.450;6.640;2022-09-20T08:19:16;2.40;;;1.50;;
40588;SDS011;26297;49.450;6.640;2022-09-20T08:22:24;4.10;;;1.60;;
40588;SDS011;26297;49.450;6.640;2022-09-20T08:25:27;3.35;;;1.48;;
40588;SDS011;26297;49.450;6.640;2022-09-20T08:28:31;3.75;;;1.10;;
40588;SDS011;26297;49.450;6.640;2022-09-20T08:31:36;3.30;;;1.40;;
40588;SDS011;26297;49.450;6.640;2022-09-20T08:34:41;2.20;;;1.13;;
40588;SDS011;26297;49.450;6.640;2022-09-20T08:37:45;1.23;;;1.10;;
40588;SDS011;26297;49.450;6.640;2022-09-20T08:40:49;2.17;;;1.13;;
40588;SDS011;26297;49.450;6.640;2022-09-20T08:50:27;3.40;;;1.58;;
40588;SDS011;26297;49.450;6.640;2022-09-20T08:53:30;1.75;;;1.20;;
40588;SDS011;26297;49.450;6.640;2022-09-20T08:56:35;3.42;;;1.10;;
40588;SDS011;26297;49.450;6.640;2022-09-20T08:59:39;2.88;;;1.60;;
40588;SDS011;26297;49.450;6.640;2022-09-20T09:02:42;0.95;;;0.93;;
40588;SDS011;26297;49.450;6.640;2022-09-20T09:05:50;2.03;;;1.20;;
40588;SDS011;26297;49.450;6.640;2022-09-20T09:08:55;3.25;;;1.27;;
40588;SDS011;26297;49.450;6.640;2022-09-20T09:12:01;2.45;;;1.42;;
40588;SDS011;26297;49.450;6.640;2022-09-20T09:15:22;5.05;;;1.40;;
40588;SDS011;26297;49.450;6.640;2022-09-20T09:18:34;2.13;;;1.20;;
40588;SDS011;26297;49.450;6.640;2022-09-20T09:21:41;4.28;;;1.38;;
40588;SDS011;26297;49.450;6.640;2022-09-20T09:24:45;1.98;;;1.20;;
40588;SDS011;26297;49.450;6.640;2022-09-20T09:31:19;1.05;;;0.75;;
40588;SDS011;26297;49.450;6.640;2022-09-20T09:34:28;2.55;;;1.20;;
40588;SDS011;26297;49.450;6.640;2022-09-20T09:37:34;3.90;;;1.10;;
40588;SDS011;26297;49.450;6.640;2022-09-20T09:40:37;3.08;;;0.95;;
40588;SDS011;26297;49.450;6.640;2022-09-20T09:44:04;4.50;;;1.27;;
40588;SDS011;26297;49.450;6.640;2022-09-20T09:47:20;3.47;;;1.00;;
40588;SDS011;26297;49.450;6.640;2022-09-20T09:50:30;2.83;;;0.90;;
40588;SDS011;26297;49.450;6.640;2022-09-20T09:53:35;4.78;;;1.73;;
40588;SDS011;26297;49.450;6.640;2022-09-20T10:00:18;0.98;;;0.73;;
40588;SDS011;26297;49.450;6.640;2022-09-20T10:03:37;2.85;;;1.00;;
40588;SDS011;26297;49.450;6.640;2022-09-20T10:07:11;1.20;;;0.80;;
40588;SDS011;26297;49.450;6.640;2022-09-20T10:31:12;4.85;;;1.10;;
40588;SDS011;26297;49.450;6.640;2022-09-20T10:34:30;1.10;;;0.75;;
40588;SDS011;26297;49.450;6.640;2022-09-20T10:41:13;1.58;;;0.80;;
40588;SDS011;26297;49.450;6.640;2022-09-20T10:51:28;0.90;;;0.57;;
40588;SDS011;26297;49.450;6.640;2022-09-20T11:05:14;1.27;;;0.65;;
40588;SDS011;26297;49.450;6.640;2022-09-20T11:08:31;3.70;;;0.85;;
40588;SDS011;26297;49.450;6.640;2022-09-20T11:11:38;2.63;;;0.47;;
40588;SDS011;26297;49.450;6.640;2022-09-20T11:15:11;1.85;;;0.70;;
40588;SDS011;26297;49.450;6.640;2022-09-20T11:21:43;0.85;;;0.30;;
40588;SDS011;26297;49.450;6.640;2022-09-20T11:25:14;2.33;;;0.68;;
40588;SDS011;26297;49.450;6.640;2022-09-20T11:28:26;1.40;;;0.50;;
40588;SDS011;26297;49.450;6.640;2022-09-20T11:31:42;1.05;;;0.50;;
40588;SDS011;26297;49.450;6.640;2022-09-20T11:34:55;2.78;;;0.70;;
40588;SDS011;26297;49.450;6.640;2022-09-20T11:42:00;3.03;;;0.90;;
40588;SDS011;26297;49.450;6.640;2022-09-20T11:45:10;1.17;;;0.73;;
40588;SDS011;26297;49.450;6.640;2022-09-20T11:48:17;3.83;;;0.98;;
40588;SDS011;26297;49.450;6.640;2022-09-20T11:54:55;0.73;;;0.45;;
40588;SDS011;26297;49.450;6.640;2022-09-20T11:58:23;2.05;;;0.60;;
40588;SDS011;26297;49.450;6.640;2022-09-20T12:01:30;2.20;;;0.63;;
40588;SDS011;26297;49.450;6.640;2022-09-20T12:04:44;0.60;;;0.60;;
40588;SDS011;26297;49.450;6.640;2022-09-20T12:07:54;0.82;;;0.73;;
40588;SDS011;26297;49.450;6.640;2022-09-20T12:11:12;2.25;;;1.17;;
40588;SDS011;26297;49.450;6.640;2022-09-20T12:14:18;0.70;;;0.55;;
40588;SDS011;26297;49.450;6.640;2022-09-20T12:26:58;0.63;;;0.63;;
40588;SDS011;26297;49.450;6.640;2022-09-20T12:30:36;2.28;;;0.60;;
40588;SDS011;26297;49.450;6.640;2022-09-20T12:37:15;0.82;;;0.60;;
40588;SDS011;26297;49.450;6.640;2022-09-20T12:40:30;1.05;;;0.55;;
40588;SDS011;26297;49.450;6.640;2022-09-20T12:43:35;1.52;;;0.85;;
40588;SDS011;26297;49.450;6.640;2022-09-20T12:46:55;0.77;;;0.52;;
40588;SDS011;26297;49.450;6.640;2022-09-20T12:50:12;2.10;;;0.63;;
40588;SDS011;26297;49.450;6.640;2022-09-20T12:53:36;0.82;;;0.60;;
40588;SDS011;26297;49.450;6.640;2022-09-20T12:56:39;0.93;;;0.50;;
40588;SDS011;26297;49.450;6.640;2022-09-20T12:59:52;1.33;;;0.60;;
40588;SDS011;26297;49.450;6.640;2022-09-20T13:03:00;1.75;;;0.40;;
40588;SDS011;26297;49.450;6.640;2022-09-20T13:09:27;2.03;;;0.70;;
40588;SDS011;26297;49.450;6.640;2022-09-20T13:12:35;1.25;;;0.28;;
40588;SDS011;26297;49.450;6.640;2022-09-20T13:15:46;1.50;;;0.50;;
40588;SDS011;26297;49.450;6.640;2022-09-20T13:19:40;1.10;;;0.60;;
40588;SDS011;26297;49.450;6.640;2022-09-20T13:22:36;1.88;;;0.47;;
40588;SDS011;26297;49.450;6.640;2022-09-20T13:25:45;0.88;;;0.50;;
40588;SDS011;26297;49.450;6.640;2022-09-20T13:28:55;0.90;;;0.60;;
40588;SDS011;26297;49.450;6.640;2022-09-20T13:35:30;1.25;;;0.57;;
40588;SDS011;26297;49.450;6.640;2022-09-20T13:38:33;0.95;;;0.82;;
40588;SDS011;26297;49.450;6.640;2022-09-20T13:41:42;1.73;;;0.50;;
40588;SDS011;26297;49.450;6.640;2022-09-20T13:44:45;1.23;;;0.43;;
40588;SDS011;26297;49.450;6.640;2022-09-20T13:47:50;1.10;;;0.50;;
40588;SDS011;26297;49.450;6.640;2022-09-20T13:50:55;0.88;;;0.60;;
40588;SDS011;26297;49.450;6.640;2022-09-20T13:57:23;0.82;;;0.47;;
40588;SDS011;26297;49.450;6.640;2022-09-20T14:00:30;0.50;;;0.50;;
40588;SDS011;26297;49.450;6.640;2022-09-20T14:03:34;0.90;;;0.60;;
40588;SDS011;26297;49.450;6.640;2022-09-20T14:06:44;3.25;;;0.68;;
40588;SDS011;26297;49.450;6.640;2022-09-20T14:09:47;0.90;;;0.60;;
40588;SDS011;26297;49.450;6.640;2022-09-20T14:12:51;1.13;;;0.50;;
40588;SDS011;26297;49.450;6.640;2022-09-20T14:15:56;0.57;;;0.52;;
40588;SDS011;26297;49.450;6.640;2022-09-20T14:19:00;1.27;;;0.57;;
40588;SDS011;26297;49.450;6.640;2022-09-20T14:22:06;3.60;;;0.80;;
40588;SDS011;26297;49.450;6.640;2022-09-20T14:28:27;0.50;;;0.50;;
40588;SDS011;26297;49.450;6.640;2022-09-20T14:31:33;0.55;;;0.35;;
40588;SDS011;26297;49.450;6.640;2022-09-20T14:35:30;1.63;;;0.55;;
40588;SDS011;26297;49.450;6.640;2022-09-20T14:38:25;0.63;;;0.38;;
40588;SDS011;26297;49.450;6.640;2022-09-20T14:44:35;1.20;;;0.40;;
40588;SDS011;26297;49.450;6.640;2022-09-20T14:47:56;0.32;;;0.32;;
40588;SDS011;26297;49.450;6.640;2022-09-20T14:54:28;1.10;;;0.50;;
40588;SDS011;26297;49.450;6.640;2022-09-20T14:57:32;0.80;;;0.40;;
40588;SDS011;26297;49.450;6.640;2022-09-20T15:04:20;3.55;;;0.60;;
40588;SDS011;26297;49.450;6.640;2022-09-20T15:07:27;0.52;;;0.52;;
40588;SDS011;26297;49.450;6.640;2022-09-20T15:10:30;1.23;;;0.38;;
40588;SDS011;26297;49.450;6.640;2022-09-20T15:13:42;1.33;;;0.50;;
40588;SDS011;26297;49.450;6.640;2022-09-20T15:16:45;0.50;;;0.43;;
40588;SDS011;26297;49.450;6.640;2022-09-20T15:19:48;2.80;;;0.57;;
40588;SDS011;26297;49.450;6.640;2022-09-20T15:22:52;1.50;;;0.63;;
40588;SDS011;26297;49.450;6.640;2022-09-20T15:25:55;3.15;;;0.75;;
40588;SDS011;26297;49.450;6.640;2022-09-20T15:28:59;1.17;;;0.70;;
40588;SDS011;26297;49.450;6.640;2022-09-20T15:32:02;0.57;;;0.57;;
40588;SDS011;26297;49.450;6.640;2022-09-20T15:35:08;1.85;;;0.60;;
40588;SDS011;26297;49.450;6.640;2022-09-20T15:38:12;2.88;;;0.80;;
40588;SDS011;26297;49.450;6.640;2022-09-20T15:41:17;0.70;;;0.50;;
40588;SDS011;26297;49.450;6.640;2022-09-20T15:44:20;1.20;;;0.68;;
40588;SDS011;26297;49.450;6.640;2022-09-20T15:47:23;0.80;;;0.73;;
40588;SDS011;26297;49.450;6.640;2022-09-20T15:50:30;1.85;;;0.63;;
40588;SDS011;26297;49.450;6.640;2022-09-20T15:53:34;0.95;;;0.60;;
40588;SDS011;26297;49.450;6.640;2022-09-20T15:56:40;0.77;;;0.77;;
40588;SDS011;26297;49.450;6.640;2022-09-20T15:59:43;1.05;;;0.60;;
40588;SDS011;26297;49.450;6.640;2022-09-20T16:02:47;0.50;;;0.50;;
40588;SDS011;26297;49.450;6.640;2022-09-20T16:05:58;1.40;;;0.50;;
40588;SDS011;26297;49.450;6.640;2022-09-20T16:09:03;0.80;;;0.40;;
40588;SDS011;26297;49.450;6.640;2022-09-20T16:12:06;0.95;;;0.50;;
40588;SDS011;26297;49.450;6.640;2022-09-20T16:15:11;1.58;;;0.73;;
40588;SDS011;26297;49.450;6.640;2022-09-20T16:18:13;1.45;;;0.73;;
40588;SDS011;26297;49.450;6.640;2022-09-20T16:21:36;0.85;;;0.70;;
40588;SDS011;26297;49.450;6.640;2022-09-20T16:24:43;1.85;;;0.80;;
40588;SDS011;26297;49.450;6.640;2022-09-20T16:27:47;1.25;;;0.93;;
40588;SDS011;26297;49.450;6.640;2022-09-20T16:30:57;0.80;;;0.80;;
40588;SDS011;26297;49.450;6.640;2022-09-20T16:34:02;2.65;;;0.85;;
40588;SDS011;26297;49.450;6.640;2022-09-20T16:37:11;2.40;;;0.60;;
40588;SDS011;26297;49.450;6.640;2022-09-20T16:40:18;2.92;;;0.70;;
40588;SDS011;26297;49.450;6.640;2022-09-20T16:43:21;0.95;;;0.75;;
40588;SDS011;26297;49.450;6.640;2022-09-20T16:46:28;2.65;;;1.02;;
40588;SDS011;26297;49.450;6.640;2022-09-20T16:49:33;0.90;;;0.68;;
40588;SDS011;26297;49.450;6.640;2022-09-20T16:52:38;1.65;;;1.10;;
40588;SDS011;26297;49.450;6.640;2022-09-20T16:55:42;2.33;;;1.38;;
40588;SDS011;26297;49.450;6.640;2022-09-20T16:58:46;1.40;;;1.30;;
40588;SDS011;26297;49.450;6.640;2022-09-20T17:01:50;2.63;;;1.73;;
40588;SDS011;26297;49.450;6.640;2022-09-20T17:04:54;2.65;;;1.25;;
40588;SDS011;26297;49.450;6.640;2022-09-20T17:07:57;1.35;;;1.00;;
40588;SDS011;26297;49.450;6.640;2022-09-20T17:11:02;1.05;;;1.05;;
40588;SDS011;26297;49.450;6.640;2022-09-20T17:14:06;2.40;;;1.10;;
40588;SDS011;26297;49.450;6.640;2022-09-20T17:17:10;1.30;;;0.85;;
40588;SDS011;26297;49.450;6.640;2022-09-20T17:20:14;0.70;;;0.63;;
40588;SDS011;26297;49.450;6.640;2022-09-20T17:23:17;2.97;;;1.00;;
40588;SDS011;26297;49.450;6.640;2022-09-20T17:26:22;1.08;;;0.93;;
40588;SDS011;26297;49.450;6.640;2022-09-20T17:29:32;3.92;;;0.98;;
40588;SDS011;26297;49.450;6.640;2022-09-20T17:32:38;1.77;;;1.10;;
40588;SDS011;26297;49.450;6.640;2022-09-20T17:35:50;2.75;;;0.85;;
40588;SDS011;26297;49.450;6.640;2022-09-20T17:38:56;1.50;;;1.00;;
40588;SDS011;26297;49.450;6.640;2022-09-20T17:42:02;3.03;;;0.70;;
40588;SDS011;26297;49.450;6.640;2022-09-20T17:45:06;1.30;;;0.70;;
40588;SDS011;26297;49.450;6.640;2022-09-20T17:48:22;0.90;;;0.73;;
40588;SDS011;26297;49.450;6.640;2022-09-20T17:51:51;1.60;;;0.80;;
40588;SDS011;26297;49.450;6.640;2022-09-20T17:55:10;0.95;;;0.70;;
40588;SDS011;26297;49.450;6.640;2022-09-20T17:58:16;0.82;;;0.68;;
40588;SDS011;26297;49.450;6.640;2022-09-20T18:05:38;2.40;;;1.33;;
40588;SDS011;26297;49.450;6.640;2022-09-20T18:08:59;1.42;;;1.00;;
40588;SDS011;26297;49.450;6.640;2022-09-20T18:12:10;1.27;;;0.80;;
40588;SDS011;26297;49.450;6.640;2022-09-20T18:15:14;2.55;;;0.98;;
40588;SDS011;26297;49.450;6.640;2022-09-20T18:21:55;1.42;;;1.10;;
40588;SDS011;26297;49.450;6.640;2022-09-20T18:25:24;1.10;;;0.95;;
40588;SDS011;26297;49.450;6.640;2022-09-20T18:32:29;11.45;;;4.30;;
40588;SDS011;26297;49.450;6.640;2022-09-20T18:35:44;8.48;;;3.35;;
40588;SDS011;26297;49.450;6.640;2022-09-20T18:39:00;8.60;;;4.30;;
40588;SDS011;26297;49.450;6.640;2022-09-20T18:42:08;2.63;;;2.05;;
40588;SDS011;26297;49.450;6.640;2022-09-20T18:45:28;2.00;;;0.90;;
40588;SDS011;26297;49.450;6.640;2022-09-20T18:48:32;1.27;;;0.70;;
40588;SDS011;26297;49.450;6.640;2022-09-20T18:51:35;1.50;;;0.90;;
40588;SDS011;26297;49.450;6.640;2022-09-20T18:54:39;1.67;;;0.95;;
40588;SDS011;26297;49.450;6.640;2022-09-20T18:57:42;2.17;;;0.98;;
40588;SDS011;26297;49.450;6.640;2022-09-20T19:00:47;2.42;;;1.00;;
40588;SDS011;26297;49.450;6.640;2022-09-20T19:10:57;2.25;;;1.00;;
40588;SDS011;26297;49.450;6.640;2022-09-20T19:14:15;3.20;;;0.90;;
40588;SDS011;26297;49.450;6.640;2022-09-20T19:25:38;1.10;;;0.95;;
40588;SDS011;26297;49.450;6.640;2022-09-20T19:43:02;1.50;;;1.08;;
40588;SDS011;26297;49.450;6.640;2022-09-20T19:53:36;2.00;;;1.30;;
40588;SDS011;26297;49.450;6.640;2022-09-20T19:56:59;1.70;;;0.93;;
40588;SDS011;26297;49.450;6.640;2022-09-20T20:00:16;2.03;;;1.25;;
40588;SDS011;26297;49.450;6.640;2022-09-20T20:03:25;1.63;;;1.05;;
40588;SDS011;26297;49.450;6.640;2022-09-20T20:18:09;2.67;;;1.10;;
40588;SDS011;26297;49.450;6.640;2022-09-20T20:21:55;1.10;;;1.10;;
40588;SDS011;26297;49.450;6.640;2022-09-20T20:25:14;2.20;;;1.10;;
40588;SDS011;26297;49.450;6.640;2022-09-20T20:28:50;1.63;;;1.05;;
40588;SDS011;26297;49.450;6.640;2022-09-20T20:32:00;3.08;;;2.78;;
40588;SDS011;26297;49.450;6.640;2022-09-20T20:35:12;2.15;;;1.75;;
40588;SDS011;26297;49.450;6.640;2022-09-20T20:38:42;2.10;;;1.48;;
40588;SDS011;26297;49.450;6.640;2022-09-20T20:41:51;3.70;;;1.20;;
40588;SDS011;26297;49.450;6.640;2022-09-20T20:44:54;1.23;;;1.08;;
40588;SDS011;26297;49.450;6.640;2022-09-20T20:47:57;1.27;;;1.10;;
40588;SDS011;26297;49.450;6.640;2022-09-20T20:51:02;2.85;;;1.60;;
40588;SDS011;26297;49.450;6.640;2022-09-20T20:54:11;1.85;;;1.20;;
40588;SDS011;26297;49.450;6.640;2022-09-20T20:57:17;1.73;;;1.50;;
